sensor_id;sensor_type;location;lat;lon;timestamp;P1;P2;P0
60816;PMS5003;51921;51.518;-3.188;2022-07-11T00:01:56;10;10;
60816;PMS5003;51921;51.518;-3.188;2022-07-11T00:04:21;12;12;
60816;PMS5003;51921;51.518;-3.188;2022-07-11T00:06:47;11;11;
60816;PMS5003;51921;51.518;-3.188;2022-07-11T00:09:12;12;11;
60816;PMS5003;51921;51.518;-3.188;2022-07-11T00:11:37;12;11;
60816;PMS5003;51921;51.518;-3.188;2022-07-11T00:14:02;16;16;
60816;PMS5003;51921;51.518;-3.188;2022-07-11T00:16:28;13;13;
60816;PMS5003;51921;51.518;-3.188;2022-07-11T00:18:53;12;12;
60816;PMS5003;51921;51.518;-3.188;2022-07-11T00:21:19;13;13;
60816;PMS5003;51921;51.518;-3.188;2022-07-11T00:23:44;12;12;
60816;PMS5003;51921;51.518;-3.188;2022-07-11T00:26:09;14;14;
60816;PMS5003;51921;51.518;-3.188;2022-07-11T00:28:35;14;14;
60816;PMS5003;51921;51.518;-3.188;2022-07-11T00:31:00;13;13;
60816;PMS5003;51921;51.518;-3.188;2022-07-11T00:33:25;14;14;
60816;PMS5003;51921;51.518;-3.188;2022-07-11T00:35:51;15;15;
60816;PMS5003;51921;51.518;-3.188;2022-07-11T00:38:16;12;12;
60816;PMS5003;51921;51.518;-3.188;2022-07-11T00:40:42;11;11;
60816;PMS5003;51921;51.518;-3.188;2022-07-11T00:43:07;13;13;
60816;PMS5003;51921;51.518;-3.188;2022-07-11T00:45:32;12;12;
60816;PMS5003;51921;51.518;-3.188;2022-07-11T00:47:58;12;12;
60816;PMS5003;51921;51.518;-3.188;2022-07-11T00:50:23;11;11;
60816;PMS5003;51921;51.518;-3.188;2022-07-11T00:52:49;12;11;
60816;PMS5003;51921;51.518;-3.188;2022-07-11T00:55:14;12;12;
60816;PMS5003;51921;51.518;-3.188;2022-07-11T00:57:40;14;12;
60816;PMS5003;51921;51.518;-3.188;2022-07-11T01:00:05;11;11;
60816;PMS5003;51921;51.518;-3.188;2022-07-11T01:02:30;11;11;
60816;PMS5003;51921;51.518;-3.188;2022-07-11T01:04:55;13;13;
60816;PMS5003;51921;51.518;-3.188;2022-07-11T01:07:21;12;12;
60816;PMS5003;51921;51.518;-3.188;2022-07-11T01:09:46;11;11;
60816;PMS5003;51921;51.518;-3.188;2022-07-11T01:12:11;13;13;
60816;PMS5003;51921;51.518;-3.188;2022-07-11T01:14:37;11;10;
60816;PMS5003;51921;51.518;-3.188;2022-07-11T01:17:03;13;13;
60816;PMS5003;51921;51.518;-3.188;2022-07-11T01:19:28;16;13;
60816;PMS5003;51921;51.518;-3.188;2022-07-11T01:21:54;14;14;
60816;PMS5003;51921;51.518;-3.188;2022-07-11T01:24:18;14;14;
60816;PMS5003;51921;51.518;-3.188;2022-07-11T01:26:44;12;12;
60816;PMS5003;51921;51.518;-3.188;2022-07-11T01:29:09;10;10;
60816;PMS5003;51921;51.518;-3.188;2022-07-11T01:31:35;12;12;
60816;PMS5003;51921;51.518;-3.188;2022-07-11T01:34:00;12;12;
60816;PMS5003;51921;51.518;-3.188;2022-07-11T01:36:25;15;14;
60816;PMS5003;51921;51.518;-3.188;2022-07-11T01:38:50;13;13;
60816;PMS5003;51921;51.518;-3.188;2022-07-11T01:41:16;14;14;
60816;PMS5003;51921;51.518;-3.188;2022-07-11T01:43:41;15;14;
60816;PMS5003;51921;51.518;-3.188;2022-07-11T01:46:06;17;15;
60816;PMS5003;51921;51.518;-3.188;2022-07-11T01:48:32;17;15;
60816;PMS5003;51921;51.518;-3.188;2022-07-11T01:50:57;17;16;
60816;PMS5003;51921;51.518;-3.188;2022-07-11T01:53:23;16;15;
60816;PMS5003;51921;51.518;-3.188;2022-07-11T01:55:48;15;15;
60816;PMS5003;51921;51.518;-3.188;2022-07-11T01:58:13;13;13;
60816;PMS5003;51921;51.518;-3.188;2022-07-11T02:00:39;13;11;
60816;PMS5003;51921;51.518;-3.188;2022-07-11T02:03:04;12;12;
60816;PMS5003;51921;51.518;-3.188;2022-07-11T02:05:29;10;10;
60816;PMS5003;51921;51.518;-3.188;2022-07-11T02:07:55;13;13;
60816;PMS5003;51921;51.518;-3.188;2022-07-11T02:10:20;13;13;
60816;PMS5003;51921;51.518;-3.188;2022-07-11T02:12:45;9;9;
60816;PMS5003;51921;51.518;-3.188;2022-07-11T02:15:11;14;13;
60816;PMS5003;51921;51.518;-3.188;2022-07-11T02:17:36;12;12;
60816;PMS5003;51921;51.518;-3.188;2022-07-11T02:20:02;11;11;
60816;PMS5003;51921;51.518;-3.188;2022-07-11T02:22:27;13;13;
60816;PMS5003;51921;51.518;-3.188;2022-07-11T02:24:52;12;12;
60816;PMS5003;51921;51.518;-3.188;2022-07-11T02:27:18;14;12;
60816;PMS5003;51921;51.518;-3.188;2022-07-11T02:29:43;13;13;
60816;PMS5003;51921;51.518;-3.188;2022-07-11T02:32:08;12;12;
60816;PMS5003;51921;51.518;-3.188;2022-07-11T02:34:34;14;14;
60816;PMS5003;51921;51.518;-3.188;2022-07-11T02:36:59;10;10;
60816;PMS5003;51921;51.518;-3.188;2022-07-11T02:39:25;11;11;
60816;PMS5003;51921;51.518;-3.188;2022-07-11T02:41:50;14;14;
60816;PMS5003;51921;51.518;-3.188;2022-07-11T02:44:15;13;12;
60816;PMS5003;51921;51.518;-3.188;2022-07-11T02:46:41;12;12;
60816;PMS5003;51921;51.518;-3.188;2022-07-11T02:49:06;12;12;
60816;PMS5003;51921;51.518;-3.188;2022-07-11T02:51:32;11;11;
60816;PMS5003;51921;51.518;-3.188;2022-07-11T02:53:57;11;10;
60816;PMS5003;51921;51.518;-3.188;2022-07-11T02:56:22;12;12;
60816;PMS5003;51921;51.518;-3.188;2022-07-11T02:58:48;10;10;
60816;PMS5003;51921;51.518;-3.188;2022-07-11T03:01:13;11;11;
60816;PMS5003;51921;51.518;-3.188;2022-07-11T03:03:39;15;14;
60816;PMS5003;51921;51.518;-3.188;2022-07-11T03:06:04;13;13;
60816;PMS5003;51921;51.518;-3.188;2022-07-11T03:08:29;12;12;
60816;PMS5003;51921;51.518;-3.188;2022-07-11T03:10:55;13;13;
60816;PMS5003;51921;51.518;-3.188;2022-07-11T03:13:20;12;12;
60816;PMS5003;51921;51.518;-3.188;2022-07-11T03:15:46;15;14;
60816;PMS5003;51921;51.518;-3.188;2022-07-11T03:18:11;11;11;
60816;PMS5003;51921;51.518;-3.188;2022-07-11T03:20:36;15;15;
60816;PMS5003;51921;51.518;-3.188;2022-07-11T03:23:02;10;10;
60816;PMS5003;51921;51.518;-3.188;2022-07-11T03:25:27;13;13;
60816;PMS5003;51921;51.518;-3.188;2022-07-11T03:27:52;13;13;
60816;PMS5003;51921;51.518;-3.188;2022-07-11T03:30:18;11;11;
60816;PMS5003;51921;51.518;-3.188;2022-07-11T03:32:43;12;12;
60816;PMS5003;51921;51.518;-3.188;2022-07-11T03:35:09;12;12;
60816;PMS5003;51921;51.518;-3.188;2022-07-11T03:37:34;13;13;
60816;PMS5003;51921;51.518;-3.188;2022-07-11T03:40:00;10;10;
60816;PMS5003;51921;51.518;-3.188;2022-07-11T03:42:25;12;12;
60816;PMS5003;51921;51.518;-3.188;2022-07-11T03:44:50;15;14;
60816;PMS5003;51921;51.518;-3.188;2022-07-11T03:47:16;12;12;
60816;PMS5003;51921;51.518;-3.188;2022-07-11T03:49:41;13;13;
60816;PMS5003;51921;51.518;-3.188;2022-07-11T03:52:07;12;12;
60816;PMS5003;51921;51.518;-3.188;2022-07-11T03:54:32;13;12;
60816;PMS5003;51921;51.518;-3.188;2022-07-11T03:56:58;12;12;
60816;PMS5003;51921;51.518;-3.188;2022-07-11T03:59:23;10;10;
60816;PMS5003;51921;51.518;-3.188;2022-07-11T04:01:48;11;11;
60816;PMS5003;51921;51.518;-3.188;2022-07-11T04:04:13;14;13;
60816;PMS5003;51921;51.518;-3.188;2022-07-11T04:06:39;14;14;
60816;PMS5003;51921;51.518;-3.188;2022-07-11T04:09:04;13;12;
60816;PMS5003;51921;51.518;-3.188;2022-07-11T04:11:30;14;14;
60816;PMS5003;51921;51.518;-3.188;2022-07-11T04:13:55;14;13;
60816;PMS5003;51921;51.518;-3.188;2022-07-11T04:16:20;14;14;
60816;PMS5003;51921;51.518;-3.188;2022-07-11T04:18:46;12;12;
60816;PMS5003;51921;51.518;-3.188;2022-07-11T04:21:11;13;12;
60816;PMS5003;51921;51.518;-3.188;2022-07-11T04:23:37;14;14;
60816;PMS5003;51921;51.518;-3.188;2022-07-11T04:26:03;12;12;
60816;PMS5003;51921;51.518;-3.188;2022-07-11T04:28:28;13;13;
60816;PMS5003;51921;51.518;-3.188;2022-07-11T04:30:53;15;13;
60816;PMS5003;51921;51.518;-3.188;2022-07-11T04:33:18;14;13;
60816;PMS5003;51921;51.518;-3.188;2022-07-11T04:35:44;10;10;
60816;PMS5003;51921;51.518;-3.188;2022-07-11T04:38:09;12;12;
60816;PMS5003;51921;51.518;-3.188;2022-07-11T04:40:34;10;10;
60816;PMS5003;51921;51.518;-3.188;2022-07-11T04:43:00;12;11;
60816;PMS5003;51921;51.518;-3.188;2022-07-11T04:45:25;9;9;
60816;PMS5003;51921;51.518;-3.188;2022-07-11T04:47:51;13;12;
60816;PMS5003;51921;51.518;-3.188;2022-07-11T04:50:16;12;11;
60816;PMS5003;51921;51.518;-3.188;2022-07-11T04:52:41;11;11;
60816;PMS5003;51921;51.518;-3.188;2022-07-11T04:55:07;14;13;
60816;PMS5003;51921;51.518;-3.188;2022-07-11T04:57:32;11;11;
60816;PMS5003;51921;51.518;-3.188;2022-07-11T04:59:57;9;9;
60816;PMS5003;51921;51.518;-3.188;2022-07-11T05:02:23;12;12;
60816;PMS5003;51921;51.518;-3.188;2022-07-11T05:04:48;12;12;
60816;PMS5003;51921;51.518;-3.188;2022-07-11T05:07:13;14;13;
60816;PMS5003;51921;51.518;-3.188;2022-07-11T05:09:39;13;12;
60816;PMS5003;51921;51.518;-3.188;2022-07-11T05:12:05;13;12;
60816;PMS5003;51921;51.518;-3.188;2022-07-11T05:14:29;11;10;
60816;PMS5003;51921;51.518;-3.188;2022-07-11T05:16:55;10;10;
60816;PMS5003;51921;51.518;-3.188;2022-07-11T05:19:20;10;10;
60816;PMS5003;51921;51.518;-3.188;2022-07-11T05:21:45;10;10;
60816;PMS5003;51921;51.518;-3.188;2022-07-11T05:24:11;12;12;
60816;PMS5003;51921;51.518;-3.188;2022-07-11T05:26:36;15;14;
60816;PMS5003;51921;51.518;-3.188;2022-07-11T05:29:02;13;13;
60816;PMS5003;51921;51.518;-3.188;2022-07-11T05:31:27;12;12;
60816;PMS5003;51921;51.518;-3.188;2022-07-11T05:33:53;13;12;
60816;PMS5003;51921;51.518;-3.188;2022-07-11T05:36:18;10;10;
60816;PMS5003;51921;51.518;-3.188;2022-07-11T05:38:43;12;12;
60816;PMS5003;51921;51.518;-3.188;2022-07-11T05:41:09;12;9;
60816;PMS5003;51921;51.518;-3.188;2022-07-11T05:43:34;13;12;
60816;PMS5003;51921;51.518;-3.188;2022-07-11T05:46:03;11;11;
60816;PMS5003;51921;51.518;-3.188;2022-07-11T05:48:25;10;10;
60816;PMS5003;51921;51.518;-3.188;2022-07-11T05:50:50;10;10;
60816;PMS5003;51921;51.518;-3.188;2022-07-11T05:53:16;11;11;
60816;PMS5003;51921;51.518;-3.188;2022-07-11T05:55:41;10;10;
60816;PMS5003;51921;51.518;-3.188;2022-07-11T05:58:06;10;10;
60816;PMS5003;51921;51.518;-3.188;2022-07-11T06:00:32;10;10;
60816;PMS5003;51921;51.518;-3.188;2022-07-11T06:02:57;10;10;
60816;PMS5003;51921;51.518;-3.188;2022-07-11T06:05:22;10;10;
60816;PMS5003;51921;51.518;-3.188;2022-07-11T06:07:48;9;9;
60816;PMS5003;51921;51.518;-3.188;2022-07-11T06:10:13;8;8;
60816;PMS5003;51921;51.518;-3.188;2022-07-11T06:12:38;10;10;
60816;PMS5003;51921;51.518;-3.188;2022-07-11T06:15:04;8;8;
60816;PMS5003;51921;51.518;-3.188;2022-07-11T06:17:29;8;8;
60816;PMS5003;51921;51.518;-3.188;2022-07-11T06:19:55;8;8;
60816;PMS5003;51921;51.518;-3.188;2022-07-11T06:22:20;10;10;
60816;PMS5003;51921;51.518;-3.188;2022-07-11T06:24:45;11;11;
60816;PMS5003;51921;51.518;-3.188;2022-07-11T06:27:11;8;8;
60816;PMS5003;51921;51.518;-3.188;2022-07-11T06:29:36;10;9;
60816;PMS5003;51921;51.518;-3.188;2022-07-11T06:32:02;9;9;
60816;PMS5003;51921;51.518;-3.188;2022-07-11T06:34:27;10;10;
60816;PMS5003;51921;51.518;-3.188;2022-07-11T06:36:52;11;11;
60816;PMS5003;51921;51.518;-3.188;2022-07-11T06:39:18;11;10;
60816;PMS5003;51921;51.518;-3.188;2022-07-11T06:41:43;7;7;
60816;PMS5003;51921;51.518;-3.188;2022-07-11T06:44:09;11;10;
60816;PMS5003;51921;51.518;-3.188;2022-07-11T06:46:34;8;8;
60816;PMS5003;51921;51.518;-3.188;2022-07-11T06:48:59;10;9;
60816;PMS5003;51921;51.518;-3.188;2022-07-11T06:51:25;8;8;
60816;PMS5003;51921;51.518;-3.188;2022-07-11T06:53:51;8;8;
60816;PMS5003;51921;51.518;-3.188;2022-07-11T06:56:16;9;9;
60816;PMS5003;51921;51.518;-3.188;2022-07-11T06:58:41;9;8;
60816;PMS5003;51921;51.518;-3.188;2022-07-11T07:01:06;7;7;
60816;PMS5003;51921;51.518;-3.188;2022-07-11T07:03:32;8;8;
60816;PMS5003;51921;51.518;-3.188;2022-07-11T07:05:57;7;7;
60816;PMS5003;51921;51.518;-3.188;2022-07-11T07:08:23;10;9;
60816;PMS5003;51921;51.518;-3.188;2022-07-11T07:10:48;8;8;
60816;PMS5003;51921;51.518;-3.188;2022-07-11T07:13:13;8;7;
60816;PMS5003;51921;51.518;-3.188;2022-07-11T07:15:39;7;7;
60816;PMS5003;51921;51.518;-3.188;2022-07-11T07:18:04;7;7;
60816;PMS5003;51921;51.518;-3.188;2022-07-11T07:20:29;6;6;
60816;PMS5003;51921;51.518;-3.188;2022-07-11T07:22:55;7;7;
60816;PMS5003;51921;51.518;-3.188;2022-07-11T07:25:20;5;5;
60816;PMS5003;51921;51.518;-3.188;2022-07-11T07:27:46;8;8;
60816;PMS5003;51921;51.518;-3.188;2022-07-11T07:30:11;7;7;
60816;PMS5003;51921;51.518;-3.188;2022-07-11T07:32:36;6;6;
60816;PMS5003;51921;51.518;-3.188;2022-07-11T07:35:02;5;5;
60816;PMS5003;51921;51.518;-3.188;2022-07-11T07:37:27;6;6;
60816;PMS5003;51921;51.518;-3.188;2022-07-11T07:39:52;7;7;
60816;PMS5003;51921;51.518;-3.188;2022-07-11T07:42:18;4;4;
60816;PMS5003;51921;51.518;-3.188;2022-07-11T07:44:43;6;6;
60816;PMS5003;51921;51.518;-3.188;2022-07-11T07:47:08;6;5;
60816;PMS5003;51921;51.518;-3.188;2022-07-11T07:49:33;7;7;
60816;PMS5003;51921;51.518;-3.188;2022-07-11T07:51:59;6;6;
60816;PMS5003;51921;51.518;-3.188;2022-07-11T07:54:24;4;4;
60816;PMS5003;51921;51.518;-3.188;2022-07-11T07:56:49;6;6;
60816;PMS5003;51921;51.518;-3.188;2022-07-11T07:59:14;8;7;
60816;PMS5003;51921;51.518;-3.188;2022-07-11T08:01:40;6;6;
60816;PMS5003;51921;51.518;-3.188;2022-07-11T08:04:05;6;6;
60816;PMS5003;51921;51.518;-3.188;2022-07-11T08:06:30;6;6;
60816;PMS5003;51921;51.518;-3.188;2022-07-11T08:08:55;9;7;
60816;PMS5003;51921;51.518;-3.188;2022-07-11T08:11:21;5;5;
60816;PMS5003;51921;51.518;-3.188;2022-07-11T08:13:46;7;7;
60816;PMS5003;51921;51.518;-3.188;2022-07-11T08:16:12;7;7;
60816;PMS5003;51921;51.518;-3.188;2022-07-11T08:18:37;6;6;
60816;PMS5003;51921;51.518;-3.188;2022-07-11T08:21:02;6;5;
60816;PMS5003;51921;51.518;-3.188;2022-07-11T08:23:27;7;6;
60816;PMS5003;51921;51.518;-3.188;2022-07-11T08:25:52;6;6;
60816;PMS5003;51921;51.518;-3.188;2022-07-11T08:28:18;8;8;
60816;PMS5003;51921;51.518;-3.188;2022-07-11T08:30:43;9;9;
60816;PMS5003;51921;51.518;-3.188;2022-07-11T08:33:08;6;6;
60816;PMS5003;51921;51.518;-3.188;2022-07-11T08:35:34;6;6;
60816;PMS5003;51921;51.518;-3.188;2022-07-11T08:37:59;7;7;
60816;PMS5003;51921;51.518;-3.188;2022-07-11T08:40:24;8;8;
60816;PMS5003;51921;51.518;-3.188;2022-07-11T08:42:50;6;6;
60816;PMS5003;51921;51.518;-3.188;2022-07-11T08:45:15;8;7;
60816;PMS5003;51921;51.518;-3.188;2022-07-11T08:47:40;6;5;
60816;PMS5003;51921;51.518;-3.188;2022-07-11T08:50:06;6;5;
60816;PMS5003;51921;51.518;-3.188;2022-07-11T08:52:31;6;5;
60816;PMS5003;51921;51.518;-3.188;2022-07-11T08:54:56;6;6;
60816;PMS5003;51921;51.518;-3.188;2022-07-11T08:57:21;6;6;
60816;PMS5003;51921;51.518;-3.188;2022-07-11T08:59:47;6;6;
60816;PMS5003;51921;51.518;-3.188;2022-07-11T09:02:12;9;8;
60816;PMS5003;51921;51.518;-3.188;2022-07-11T09:04:37;6;6;
60816;PMS5003;51921;51.518;-3.188;2022-07-11T09:07:02;4;4;
60816;PMS5003;51921;51.518;-3.188;2022-07-11T09:09:28;5;5;
60816;PMS5003;51921;51.518;-3.188;2022-07-11T09:11:53;9;8;
60816;PMS5003;51921;51.518;-3.188;2022-07-11T09:14:22;4;4;
60816;PMS5003;51921;51.518;-3.188;2022-07-11T09:21:34;5;5;
60816;PMS5003;51921;51.518;-3.188;2022-07-11T09:23:59;7;5;
60816;PMS5003;51921;51.518;-3.188;2022-07-11T09:26:24;5;5;
60816;PMS5003;51921;51.518;-3.188;2022-07-11T09:28:58;8;8;
60816;PMS5003;51921;51.518;-3.188;2022-07-11T09:31:15;6;6;
60816;PMS5003;51921;51.518;-3.188;2022-07-11T09:33:40;13;11;
60816;PMS5003;51921;51.518;-3.188;2022-07-11T09:36:05;5;5;
60816;PMS5003;51921;51.518;-3.188;2022-07-11T09:38:30;6;6;
60816;PMS5003;51921;51.518;-3.188;2022-07-11T09:40:55;10;8;
60816;PMS5003;51921;51.518;-3.188;2022-07-11T09:43:24;6;5;
60816;PMS5003;51921;51.518;-3.188;2022-07-11T09:45:46;5;4;
60816;PMS5003;51921;51.518;-3.188;2022-07-11T09:48:12;6;6;
60816;PMS5003;51921;51.518;-3.188;2022-07-11T09:50:37;6;6;
60816;PMS5003;51921;51.518;-3.188;2022-07-11T09:53:02;6;6;
60816;PMS5003;51921;51.518;-3.188;2022-07-11T09:55:27;4;4;
60816;PMS5003;51921;51.518;-3.188;2022-07-11T09:57:52;6;6;
60816;PMS5003;51921;51.518;-3.188;2022-07-11T10:00:18;5;5;
60816;PMS5003;51921;51.518;-3.188;2022-07-11T10:02:43;5;5;
60816;PMS5003;51921;51.518;-3.188;2022-07-11T10:05:08;4;4;
60816;PMS5003;51921;51.518;-3.188;2022-07-11T10:07:33;5;5;
60816;PMS5003;51921;51.518;-3.188;2022-07-11T10:09:59;5;5;
60816;PMS5003;51921;51.518;-3.188;2022-07-11T10:12:24;5;5;
60816;PMS5003;51921;51.518;-3.188;2022-07-11T10:14:49;6;6;
60816;PMS5003;51921;51.518;-3.188;2022-07-11T10:17:15;5;5;
60816;PMS5003;51921;51.518;-3.188;2022-07-11T10:19:42;5;5;
60816;PMS5003;51921;51.518;-3.188;2022-07-11T10:22:09;5;5;
60816;PMS5003;51921;51.518;-3.188;2022-07-11T10:24:34;6;5;
60816;PMS5003;51921;51.518;-3.188;2022-07-11T10:26:58;6;6;
60816;PMS5003;51921;51.518;-3.188;2022-07-11T10:29:22;4;4;
60816;PMS5003;51921;51.518;-3.188;2022-07-11T10:31:46;4;4;
60816;PMS5003;51921;51.518;-3.188;2022-07-11T10:34:11;4;4;
60816;PMS5003;51921;51.518;-3.188;2022-07-11T10:36:39;5;5;
60816;PMS5003;51921;51.518;-3.188;2022-07-11T10:41:27;5;5;
60816;PMS5003;51921;51.518;-3.188;2022-07-11T10:43:52;4;4;
60816;PMS5003;51921;51.518;-3.188;2022-07-11T10:46:18;5;5;
60816;PMS5003;51921;51.518;-3.188;2022-07-11T10:51:10;4;4;
60816;PMS5003;51921;51.518;-3.188;2022-07-11T10:53:38;5;5;
60816;PMS5003;51921;51.518;-3.188;2022-07-11T10:56:00;5;4;
60816;PMS5003;51921;51.518;-3.188;2022-07-11T10:58:25;5;5;
60816;PMS5003;51921;51.518;-3.188;2022-07-11T11:00:49;6;6;
60816;PMS5003;51921;51.518;-3.188;2022-07-11T11:03:15;5;5;
60816;PMS5003;51921;51.518;-3.188;2022-07-11T11:05:40;5;5;
60816;PMS5003;51921;51.518;-3.188;2022-07-11T11:08:06;8;7;
60816;PMS5003;51921;51.518;-3.188;2022-07-11T11:17:46;6;5;
60816;PMS5003;51921;51.518;-3.188;2022-07-11T11:22:36;8;8;
60816;PMS5003;51921;51.518;-3.188;2022-07-11T11:25:01;4;4;
60816;PMS5003;51921;51.518;-3.188;2022-07-11T11:27:27;5;4;
60816;PMS5003;51921;51.518;-3.188;2022-07-11T11:29:53;4;4;
60816;PMS5003;51921;51.518;-3.188;2022-07-11T11:32:18;5;5;
60816;PMS5003;51921;51.518;-3.188;2022-07-11T11:34:43;8;6;
60816;PMS5003;51921;51.518;-3.188;2022-07-11T11:37:08;5;5;
60816;PMS5003;51921;51.518;-3.188;2022-07-11T11:39:34;6;6;
60816;PMS5003;51921;51.518;-3.188;2022-07-11T11:42:04;7;7;
60816;PMS5003;51921;51.518;-3.188;2022-07-11T11:44:23;6;5;
60816;PMS5003;51921;51.518;-3.188;2022-07-11T11:46:50;5;5;
60816;PMS5003;51921;51.518;-3.188;2022-07-11T11:49:14;5;5;
60816;PMS5003;51921;51.518;-3.188;2022-07-11T11:51:39;6;6;
60816;PMS5003;51921;51.518;-3.188;2022-07-11T11:54:04;7;7;
60816;PMS5003;51921;51.518;-3.188;2022-07-11T11:56:30;7;7;
60816;PMS5003;51921;51.518;-3.188;2022-07-11T11:58:56;6;5;
60816;PMS5003;51921;51.518;-3.188;2022-07-11T12:01:21;5;5;
60816;PMS5003;51921;51.518;-3.188;2022-07-11T12:03:47;6;6;
60816;PMS5003;51921;51.518;-3.188;2022-07-11T12:06:11;9;8;
60816;PMS5003;51921;51.518;-3.188;2022-07-11T12:08:37;7;7;
60816;PMS5003;51921;51.518;-3.188;2022-07-11T12:11:02;7;7;
60816;PMS5003;51921;51.518;-3.188;2022-07-11T12:13:27;5;5;
60816;PMS5003;51921;51.518;-3.188;2022-07-11T12:15:52;5;5;
60816;PMS5003;51921;51.518;-3.188;2022-07-11T12:18:18;6;6;
60816;PMS5003;51921;51.518;-3.188;2022-07-11T12:20:43;7;7;
60816;PMS5003;51921;51.518;-3.188;2022-07-11T12:23:09;6;6;
60816;PMS5003;51921;51.518;-3.188;2022-07-11T12:25:34;6;6;
60816;PMS5003;51921;51.518;-3.188;2022-07-11T12:27:59;6;6;
60816;PMS5003;51921;51.518;-3.188;2022-07-11T12:30:24;5;5;
60816;PMS5003;51921;51.518;-3.188;2022-07-11T12:35:14;6;6;
60816;PMS5003;51921;51.518;-3.188;2022-07-11T12:37:40;8;7;
60816;PMS5003;51921;51.518;-3.188;2022-07-11T12:40:05;7;7;
60816;PMS5003;51921;51.518;-3.188;2022-07-11T12:42:31;7;7;
60816;PMS5003;51921;51.518;-3.188;2022-07-11T12:44:56;6;6;
60816;PMS5003;51921;51.518;-3.188;2022-07-11T12:47:23;7;7;
60816;PMS5003;51921;51.518;-3.188;2022-07-11T12:49:46;5;5;
60816;PMS5003;51921;51.518;-3.188;2022-07-11T12:52:11;7;7;
60816;PMS5003;51921;51.518;-3.188;2022-07-11T12:54:36;7;7;
60816;PMS5003;51921;51.518;-3.188;2022-07-11T12:57:02;5;5;
60816;PMS5003;51921;51.518;-3.188;2022-07-11T12:59:27;8;8;
60816;PMS5003;51921;51.518;-3.188;2022-07-11T13:01:54;6;6;
60816;PMS5003;51921;51.518;-3.188;2022-07-11T13:06:43;6;6;
60816;PMS5003;51921;51.518;-3.188;2022-07-11T13:09:08;6;6;
60816;PMS5003;51921;51.518;-3.188;2022-07-11T13:11:33;7;6;
60816;PMS5003;51921;51.518;-3.188;2022-07-11T13:13:58;5;5;
60816;PMS5003;51921;51.518;-3.188;2022-07-11T13:16:24;11;10;
60816;PMS5003;51921;51.518;-3.188;2022-07-11T13:18:49;5;5;
60816;PMS5003;51921;51.518;-3.188;2022-07-11T13:21:14;6;6;
60816;PMS5003;51921;51.518;-3.188;2022-07-11T13:23:39;7;7;
60816;PMS5003;51921;51.518;-3.188;2022-07-11T13:26:05;6;5;
60816;PMS5003;51921;51.518;-3.188;2022-07-11T13:28:30;7;7;
60816;PMS5003;51921;51.518;-3.188;2022-07-11T13:30:55;4;4;
60816;PMS5003;51921;51.518;-3.188;2022-07-11T13:33:21;5;5;
60816;PMS5003;51921;51.518;-3.188;2022-07-11T13:35:46;7;7;
60816;PMS5003;51921;51.518;-3.188;2022-07-11T13:38:11;6;6;
60816;PMS5003;51921;51.518;-3.188;2022-07-11T13:40:36;6;6;
60816;PMS5003;51921;51.518;-3.188;2022-07-11T13:43:01;5;5;
60816;PMS5003;51921;51.518;-3.188;2022-07-11T13:45:27;6;6;
60816;PMS5003;51921;51.518;-3.188;2022-07-11T13:47:52;5;5;
60816;PMS5003;51921;51.518;-3.188;2022-07-11T13:50:17;4;3;
60816;PMS5003;51921;51.518;-3.188;2022-07-11T13:52:42;8;8;
60816;PMS5003;51921;51.518;-3.188;2022-07-11T13:55:08;5;5;
60816;PMS5003;51921;51.518;-3.188;2022-07-11T13:57:33;5;5;
60816;PMS5003;51921;51.518;-3.188;2022-07-11T13:59:58;4;3;
60816;PMS5003;51921;51.518;-3.188;2022-07-11T14:02:23;5;4;
60816;PMS5003;51921;51.518;-3.188;2022-07-11T14:04:49;6;5;
60816;PMS5003;51921;51.518;-3.188;2022-07-11T14:07:14;8;7;
60816;PMS5003;51921;51.518;-3.188;2022-07-11T14:09:39;8;8;
60816;PMS5003;51921;51.518;-3.188;2022-07-11T14:12:05;7;7;
60816;PMS5003;51921;51.518;-3.188;2022-07-11T14:14:30;5;5;
60816;PMS5003;51921;51.518;-3.188;2022-07-11T14:16:55;4;4;
60816;PMS5003;51921;51.518;-3.188;2022-07-11T14:19:20;5;5;
60816;PMS5003;51921;51.518;-3.188;2022-07-11T14:21:45;6;6;
60816;PMS5003;51921;51.518;-3.188;2022-07-11T14:24:11;11;10;
60816;PMS5003;51921;51.518;-3.188;2022-07-11T14:26:36;8;7;
60816;PMS5003;51921;51.518;-3.188;2022-07-11T14:29:02;5;4;
60816;PMS5003;51921;51.518;-3.188;2022-07-11T14:31:27;6;6;
60816;PMS5003;51921;51.518;-3.188;2022-07-11T14:33:52;5;5;
60816;PMS5003;51921;51.518;-3.188;2022-07-11T14:36:17;5;5;
60816;PMS5003;51921;51.518;-3.188;2022-07-11T14:38:42;7;6;
60816;PMS5003;51921;51.518;-3.188;2022-07-11T14:41:08;5;5;
60816;PMS5003;51921;51.518;-3.188;2022-07-11T14:43:33;6;6;
60816;PMS5003;51921;51.518;-3.188;2022-07-11T14:45:58;8;6;
60816;PMS5003;51921;51.518;-3.188;2022-07-11T14:48:23;6;5;
60816;PMS5003;51921;51.518;-3.188;2022-07-11T14:50:49;5;5;
60816;PMS5003;51921;51.518;-3.188;2022-07-11T14:53:14;5;5;
60816;PMS5003;51921;51.518;-3.188;2022-07-11T14:55:39;5;5;
60816;PMS5003;51921;51.518;-3.188;2022-07-11T14:58:05;5;5;
60816;PMS5003;51921;51.518;-3.188;2022-07-11T15:00:30;4;4;
60816;PMS5003;51921;51.518;-3.188;2022-07-11T15:02:55;4;4;
60816;PMS5003;51921;51.518;-3.188;2022-07-11T15:05:20;5;5;
60816;PMS5003;51921;51.518;-3.188;2022-07-11T15:07:45;4;4;
60816;PMS5003;51921;51.518;-3.188;2022-07-11T15:10:11;3;3;
60816;PMS5003;51921;51.518;-3.188;2022-07-11T15:12:36;5;5;
60816;PMS5003;51921;51.518;-3.188;2022-07-11T15:15:01;6;5;
60816;PMS5003;51921;51.518;-3.188;2022-07-11T15:17:26;5;5;
60816;PMS5003;51921;51.518;-3.188;2022-07-11T15:19:52;5;5;
60816;PMS5003;51921;51.518;-3.188;2022-07-11T15:22:17;4;4;
60816;PMS5003;51921;51.518;-3.188;2022-07-11T15:24:42;4;4;
60816;PMS5003;51921;51.518;-3.188;2022-07-11T15:27:07;5;4;
60816;PMS5003;51921;51.518;-3.188;2022-07-11T15:29:33;5;5;
60816;PMS5003;51921;51.518;-3.188;2022-07-11T15:31:58;3;3;
60816;PMS5003;51921;51.518;-3.188;2022-07-11T15:34:23;4;4;
60816;PMS5003;51921;51.518;-3.188;2022-07-11T15:36:48;6;5;
60816;PMS5003;51921;51.518;-3.188;2022-07-11T15:39:14;4;4;
60816;PMS5003;51921;51.518;-3.188;2022-07-11T15:41:39;5;5;
60816;PMS5003;51921;51.518;-3.188;2022-07-11T15:44:04;6;6;
60816;PMS5003;51921;51.518;-3.188;2022-07-11T15:46:30;4;4;
60816;PMS5003;51921;51.518;-3.188;2022-07-11T15:48:55;6;6;
60816;PMS5003;51921;51.518;-3.188;2022-07-11T15:51:20;6;6;
60816;PMS5003;51921;51.518;-3.188;2022-07-11T15:53:45;4;4;
60816;PMS5003;51921;51.518;-3.188;2022-07-11T15:56:10;5;5;
60816;PMS5003;51921;51.518;-3.188;2022-07-11T15:58:36;5;5;
60816;PMS5003;51921;51.518;-3.188;2022-07-11T16:01:01;5;5;
60816;PMS5003;51921;51.518;-3.188;2022-07-11T16:03:26;4;4;
60816;PMS5003;51921;51.518;-3.188;2022-07-11T16:05:52;4;4;
60816;PMS5003;51921;51.518;-3.188;2022-07-11T16:08:17;6;6;
60816;PMS5003;51921;51.518;-3.188;2022-07-11T16:10:42;3;3;
60816;PMS5003;51921;51.518;-3.188;2022-07-11T16:13:07;3;3;
60816;PMS5003;51921;51.518;-3.188;2022-07-11T16:15:33;3;3;
60816;PMS5003;51921;51.518;-3.188;2022-07-11T16:17:58;5;5;
60816;PMS5003;51921;51.518;-3.188;2022-07-11T16:20:23;6;5;
60816;PMS5003;51921;51.518;-3.188;2022-07-11T16:22:48;5;5;
60816;PMS5003;51921;51.518;-3.188;2022-07-11T16:25:13;4;4;
60816;PMS5003;51921;51.518;-3.188;2022-07-11T16:27:39;4;4;
60816;PMS5003;51921;51.518;-3.188;2022-07-11T16:30:04;4;4;
60816;PMS5003;51921;51.518;-3.188;2022-07-11T16:32:29;2;2;